createdAt,value
2023-02-07T00:01:21.302Z,4.57
2023-02-07T00:03:48.233Z,4.10
2023-02-07T00:06:20.783Z,4.68
2023-02-07T00:08:47.394Z,4.80
2023-02-07T00:11:16.850Z,4.55
2023-02-07T00:13:44.836Z,4.40
2023-02-07T00:16:11.603Z,6.40
2023-02-07T00:18:40.752Z,5.20
2023-02-07T00:21:16.095Z,5.65
2023-02-07T00:23:43.234Z,4.97
2023-02-07T00:26:10.677Z,4.53
2023-02-07T00:28:37.689Z,4.82
2023-02-07T00:31:06.785Z,6.38
2023-02-07T00:33:35.569Z,7.80
2023-02-07T00:36:04.780Z,8.25
2023-02-07T00:38:31.582Z,6.80
2023-02-07T00:40:57.959Z,6.15
2023-02-07T00:43:29.837Z,5.97
2023-02-07T00:45:59.482Z,6.07
2023-02-07T00:48:27.465Z,4.95
2023-02-07T00:50:54.091Z,4.78
2023-02-07T00:53:20.927Z,4.38
2023-02-07T00:55:47.235Z,4.00
2023-02-07T00:58:14.195Z,3.70
2023-02-07T01:00:40.580Z,3.47
2023-02-07T01:03:06.881Z,3.17
2023-02-07T01:05:34.812Z,3.60
2023-02-07T01:08:01.728Z,3.55
2023-02-07T01:10:28.491Z,3.42
2023-02-07T01:12:55.156Z,3.05
2023-02-07T01:15:22.211Z,3.45
2023-02-07T01:17:48.559Z,3.40
2023-02-07T01:20:15.552Z,3.20
2023-02-07T01:22:41.929Z,3.92
2023-02-07T01:25:09.080Z,3.42
2023-02-07T01:27:36.790Z,3.47
2023-02-07T01:30:04.576Z,3.15
2023-02-07T01:32:33.166Z,3.45
2023-02-07T01:34:59.507Z,2.90
2023-02-07T01:37:25.874Z,3.20
2023-02-07T01:39:52.171Z,2.88
2023-02-07T01:42:18.794Z,2.97
2023-02-07T01:44:47.966Z,2.63
2023-02-07T01:47:20.378Z,2.95
2023-02-07T01:49:49.021Z,3.22
2023-02-07T01:52:19.677Z,3.38
2023-02-07T01:54:51.116Z,2.92
2023-02-07T01:57:20.907Z,3.05
2023-02-07T01:59:49.160Z,2.67
2023-02-07T02:02:18.992Z,3.25
2023-02-07T02:04:45.544Z,2.60
2023-02-07T02:07:14.195Z,2.65
2023-02-07T02:09:40.555Z,3.15
2023-02-07T02:12:41.038Z,3.20
2023-02-07T02:15:14.004Z,3.05
2023-02-07T02:17:43.332Z,3.38
2023-02-07T02:20:34.421Z,2.97
2023-02-07T02:23:22.293Z,3.13
2023-02-07T02:26:21.840Z,2.90
2023-02-07T02:29:24.698Z,3.20
2023-02-07T02:32:25.827Z,3.25
2023-02-07T02:35:18.117Z,3.30
2023-02-07T02:37:50.432Z,4.05
2023-02-07T02:40:25.164Z,4.38
2023-02-07T02:43:32.632Z,3.38
2023-02-07T02:46:07.295Z,3.30
2023-02-07T02:48:35.151Z,3.10
2023-02-07T02:51:02.248Z,3.60
2023-02-07T02:53:28.652Z,3.80
2023-02-07T02:56:23.232Z,2.83
2023-02-07T02:59:11.369Z,2.85
2023-02-07T03:01:37.659Z,2.90
2023-02-07T03:04:50.667Z,3.53
2023-02-07T03:07:33.835Z,3.22
2023-02-07T03:10:31.121Z,3.35
2023-02-07T03:13:09.761Z,3.28
2023-02-07T03:15:55.903Z,3.60
2023-02-07T03:18:31.342Z,2.78
2023-02-07T03:21:05.927Z,3.05
2023-02-07T03:23:33.297Z,2.90
2023-02-07T03:26:01.987Z,3.45
2023-02-07T03:28:31.273Z,2.90
2023-02-07T03:31:00.503Z,3.00
2023-02-07T03:33:27.116Z,2.70
2023-02-07T03:36:00.412Z,3.05
2023-02-07T03:38:27.274Z,2.80
2023-02-07T03:40:59.281Z,3.42
2023-02-07T03:43:29.694Z,2.90
2023-02-07T03:45:56.392Z,3.20
2023-02-07T03:48:23.012Z,2.95
2023-02-07T03:50:51.809Z,2.95
2023-02-07T03:53:19.383Z,3.15
2023-02-07T03:55:45.925Z,3.13
2023-02-07T03:58:12.272Z,2.40
2023-02-07T04:00:38.655Z,3.58
2023-02-07T04:03:05.208Z,2.88
2023-02-07T04:05:31.618Z,3.05
2023-02-07T04:07:57.955Z,3.10
2023-02-07T04:10:24.266Z,3.10
2023-02-07T04:12:50.801Z,3.00
2023-02-07T04:15:17.524Z,3.05
2023-02-07T04:17:43.829Z,3.40
2023-02-07T04:20:10.945Z,2.80
2023-02-07T04:22:37.315Z,2.55
2023-02-07T04:25:04.752Z,2.78
2023-02-07T04:27:31.108Z,3.05
2023-02-07T04:29:58.011Z,2.95
2023-02-07T04:32:24.362Z,2.58
2023-02-07T04:34:50.765Z,2.53
2023-02-07T04:37:17.195Z,2.80
2023-02-07T04:39:43.545Z,2.90
2023-02-07T04:42:09.879Z,2.78
2023-02-07T04:44:36.214Z,2.90
2023-02-07T04:47:02.539Z,3.10
2023-02-07T04:49:29.634Z,2.90
2023-02-07T04:51:56.251Z,2.90
2023-02-07T04:54:22.636Z,3.20
2023-02-07T04:56:49.008Z,3.25
2023-02-07T04:59:15.359Z,2.83
2023-02-07T05:01:41.692Z,3.22
2023-02-07T05:04:08.045Z,3.28
2023-02-07T05:06:34.467Z,4.57
2023-02-07T05:09:00.750Z,3.65
2023-02-07T05:11:27.137Z,4.70
2023-02-07T05:13:53.460Z,6.10
2023-02-07T05:16:19.861Z,4.57
2023-02-07T05:18:46.221Z,4.47
2023-02-07T05:21:12.573Z,4.18
2023-02-07T05:23:39.120Z,3.28
2023-02-07T05:26:05.468Z,3.50
2023-02-07T05:28:31.898Z,4.18
2023-02-07T05:30:58.382Z,5.80
2023-02-07T05:33:24.786Z,4.97
2023-02-07T05:35:51.099Z,4.05
2023-02-07T05:38:19.658Z,4.35
2023-02-07T05:40:47.248Z,4.28
2023-02-07T05:43:14.105Z,3.67
2023-02-07T05:45:40.954Z,4.07
2023-02-07T05:48:08.370Z,4.22
2023-02-07T05:50:34.845Z,3.42
2023-02-07T05:53:06.542Z,3.50
2023-02-07T05:55:33.380Z,4.50
2023-02-07T05:57:59.895Z,4.18
2023-02-07T06:00:26.274Z,4.20
2023-02-07T06:02:53.057Z,4.18
2023-02-07T06:05:24.566Z,4.25
2023-02-07T06:07:51.537Z,4.20
2023-02-07T06:10:18.268Z,4.15
2023-02-07T06:12:44.707Z,4.05
2023-02-07T06:15:11.072Z,4.05
2023-02-07T06:17:37.575Z,3.97
2023-02-07T06:20:04.627Z,4.15
2023-02-07T06:22:31.017Z,6.85
2023-02-07T06:24:57.321Z,8.63
2023-02-07T06:27:23.682Z,8.82
2023-02-07T06:29:50.018Z,8.32
2023-02-07T06:32:16.454Z,11.98
2023-02-07T06:34:42.757Z,12.63
2023-02-07T06:37:09.085Z,10.60
2023-02-07T06:39:35.428Z,9.25
2023-02-07T06:42:01.788Z,8.02
2023-02-07T06:44:28.113Z,8.77
2023-02-07T06:46:54.434Z,8.73
2023-02-07T06:49:20.828Z,8.23
2023-02-07T06:51:47.182Z,8.27
2023-02-07T06:54:13.515Z,7.93
2023-02-07T06:56:39.842Z,7.03
2023-02-07T06:59:06.154Z,6.82
2023-02-07T07:01:32.566Z,7.10
2023-02-07T07:03:58.973Z,6.25
2023-02-07T07:06:25.418Z,6.50
2023-02-07T07:08:51.913Z,5.93
2023-02-07T07:11:18.851Z,7.05
2023-02-07T07:13:45.667Z,6.68
2023-02-07T07:16:12.076Z,6.60
2023-02-07T07:18:39.069Z,6.45
2023-02-07T07:21:06.156Z,6.40
2023-02-07T07:23:32.553Z,6.88
2023-02-07T07:25:58.877Z,7.93
2023-02-07T07:28:25.406Z,11.18
2023-02-07T07:30:51.767Z,13.00
2023-02-07T07:33:18.102Z,12.10
2023-02-07T07:35:44.504Z,12.15
2023-02-07T07:38:10.849Z,12.20
2023-02-07T07:40:37.459Z,12.60
2023-02-07T07:43:03.936Z,11.13
2023-02-07T07:45:39.862Z,12.77
2023-02-07T07:48:06.296Z,14.32
2023-02-07T07:50:32.654Z,15.52
2023-02-07T07:52:58.981Z,15.13
2023-02-07T07:55:25.452Z,14.60
2023-02-07T07:57:53.287Z,19.70
2023-02-07T08:00:19.784Z,20.08
2023-02-07T08:02:46.630Z,16.05
2023-02-07T08:05:13.907Z,15.02
2023-02-07T08:07:40.579Z,17.35
2023-02-07T08:10:06.989Z,14.43
2023-02-07T08:12:33.429Z,13.80
2023-02-07T08:14:59.758Z,16.27
2023-02-07T08:17:26.086Z,14.77
2023-02-07T08:19:52.423Z,15.02
2023-02-07T08:22:18.774Z,15.75
2023-02-07T08:24:45.099Z,14.10
2023-02-07T08:27:11.810Z,14.75
2023-02-07T08:29:38.174Z,12.95
2023-02-07T08:32:05.404Z,13.73
2023-02-07T08:34:37.187Z,12.75
2023-02-07T08:37:08.412Z,12.88
2023-02-07T08:42:08.126Z,13.98
2023-02-07T08:44:35.954Z,15.27
2023-02-07T08:47:03.430Z,14.77
2023-02-07T08:49:30.396Z,13.25
2023-02-07T08:51:56.812Z,13.70
2023-02-07T08:54:23.126Z,13.88
2023-02-07T08:56:49.428Z,14.82
2023-02-07T08:59:15.732Z,14.23
2023-02-07T09:01:42.029Z,14.45
2023-02-07T09:04:09.718Z,13.65
2023-02-07T09:06:36.081Z,14.52
2023-02-07T09:09:02.579Z,14.77
2023-02-07T09:11:28.967Z,14.68
2023-02-07T09:13:55.342Z,14.32
2023-02-07T09:16:23.155Z,14.63
2023-02-07T09:18:50.394Z,16.00
2023-02-07T09:21:18.337Z,16.25
2023-02-07T09:23:44.753Z,13.57
2023-02-07T09:26:17.063Z,15.02
2023-02-07T09:28:43.524Z,14.45
2023-02-07T09:31:12.309Z,13.38
2023-02-07T09:33:39.760Z,14.38
2023-02-07T09:36:06.732Z,14.27
2023-02-07T09:38:33.071Z,13.80
2023-02-07T09:40:59.865Z,14.48
2023-02-07T09:43:45.019Z,13.43
2023-02-07T09:46:51.916Z,13.32
2023-02-07T09:49:38.873Z,14.48
2023-02-07T09:52:11.947Z,15.48
2023-02-07T09:54:45.005Z,14.05
2023-02-07T09:57:31.192Z,13.57
2023-02-07T10:00:04.838Z,14.25
2023-02-07T10:02:45.921Z,12.38
2023-02-07T10:05:19.296Z,12.48
2023-02-07T10:07:47.481Z,13.75
2023-02-07T10:10:38.251Z,13.32
2023-02-07T10:13:19.760Z,14.95
2023-02-07T10:16:10.972Z,13.02
2023-02-07T10:19:04.096Z,11.68
2023-02-07T10:21:49.217Z,12.05
2023-02-07T10:24:28.679Z,11.48
2023-02-07T10:27:03.995Z,14.77
2023-02-07T10:29:45.539Z,12.75
2023-02-07T10:32:21.248Z,12.27
2023-02-07T10:34:47.729Z,20.92
2023-02-07T10:37:20.518Z,14.13
2023-02-07T10:40:00.956Z,11.25
2023-02-07T10:42:28.743Z,12.43
2023-02-07T10:44:55.079Z,15.27
2023-02-07T10:47:23.177Z,12.25
2023-02-07T10:49:53.112Z,12.25
2023-02-07T10:52:44.074Z,13.40
2023-02-07T10:55:13.765Z,12.50
2023-02-07T10:57:42.087Z,11.30
2023-02-07T11:00:30.724Z,16.05
2023-02-07T11:03:07.003Z,12.73
2023-02-07T11:05:37.351Z,12.85
2023-02-07T11:08:25.645Z,11.50
2023-02-07T11:10:55.086Z,12.88
2023-02-07T11:13:24.578Z,13.63
2023-02-07T11:16:01.409Z,13.57
2023-02-07T11:18:45.063Z,10.55
2023-02-07T11:21:38.098Z,11.82
2023-02-07T11:24:35.668Z,11.48
2023-02-07T11:27:05.685Z,19.23
2023-02-07T11:29:37.998Z,12.07
2023-02-07T11:32:05.505Z,9.80
2023-02-07T11:35:05.756Z,10.57
2023-02-07T11:37:37.545Z,9.57
2023-02-07T11:40:19.163Z,9.55
2023-02-07T11:43:01.303Z,10.52
2023-02-07T11:45:28.946Z,10.60
2023-02-07T11:47:57.602Z,11.68
2023-02-07T11:50:30.736Z,11.25
2023-02-07T11:52:59.617Z,10.40
2023-02-07T11:55:33.011Z,11.35
2023-02-07T11:58:18.213Z,10.52
2023-02-07T12:00:45.144Z,10.68
2023-02-07T12:03:26.415Z,11.13
2023-02-07T12:08:24.885Z,10.60
2023-02-07T12:10:57.313Z,10.65
2023-02-07T12:13:39.093Z,10.75
2023-02-07T12:16:09.524Z,11.65
2023-02-07T12:18:47.694Z,11.90
2023-02-07T12:21:21.703Z,12.32
2023-02-07T12:23:57.850Z,11.77
2023-02-07T12:26:29.268Z,10.50
2023-02-07T12:29:21.892Z,9.88
2023-02-07T12:32:07.334Z,10.60
2023-02-07T12:34:54.258Z,11.80
2023-02-07T12:37:41.999Z,11.43
2023-02-07T12:40:26.426Z,11.93
2023-02-07T12:43:01.623Z,10.23
2023-02-07T12:45:56.792Z,8.98
2023-02-07T12:48:54.028Z,10.40
2023-02-07T12:51:47.723Z,11.40
2023-02-07T12:54:29.905Z,11.25
2023-02-07T12:57:10.773Z,11.25
2023-02-07T12:59:52.150Z,12.05
2023-02-07T13:05:22.111Z,10.80
2023-02-07T13:08:12.599Z,12.65
2023-02-07T13:11:04.371Z,11.47
2023-02-07T13:13:55.668Z,12.55
2023-02-07T13:16:31.456Z,11.70
2023-02-07T13:19:07.772Z,11.00
2023-02-07T13:21:54.079Z,12.25
2023-02-07T13:24:24.452Z,10.93
2023-02-07T13:27:17.394Z,13.98
2023-02-07T13:29:46.032Z,13.32
2023-02-07T13:32:21.729Z,12.27
2023-02-07T13:34:56.980Z,16.10
2023-02-07T13:37:34.015Z,15.10
2023-02-07T13:40:20.911Z,12.57
2023-02-07T13:43:05.463Z,11.82
2023-02-07T13:45:55.080Z,11.77
2023-02-07T13:48:37.730Z,9.52
2023-02-07T13:51:21.979Z,9.27
2023-02-07T13:54:09.100Z,12.52
2023-02-07T13:56:55.111Z,9.82
2023-02-07T13:59:38.936Z,9.63
2023-02-07T14:02:14.620Z,9.48
2023-02-07T14:04:54.940Z,9.32
2023-02-07T14:07:29.616Z,10.20
2023-02-07T14:09:58.463Z,9.25
2023-02-07T14:12:26.507Z,8.63
2023-02-07T14:15:02.586Z,8.20
2023-02-07T14:17:29.465Z,9.43
2023-02-07T14:20:00.239Z,8.93
2023-02-07T14:22:28.972Z,8.90
2023-02-07T14:24:58.026Z,8.60
2023-02-07T14:28:02.787Z,8.43
2023-02-07T14:30:56.803Z,8.18
2023-02-07T14:33:32.827Z,7.88
2023-02-07T14:36:05.251Z,8.70
2023-02-07T14:38:43.060Z,8.13
2023-02-07T14:41:13.365Z,8.90
2023-02-07T14:44:07.680Z,9.93
2023-02-07T14:46:48.268Z,9.57
2023-02-07T14:49:38.190Z,9.68
2023-02-07T14:52:08.844Z,9.90
2023-02-07T14:55:04.397Z,13.40
2023-02-07T14:57:43.086Z,19.08
2023-02-07T15:00:15.230Z,16.48
2023-02-07T15:02:54.698Z,13.00
2023-02-07T15:05:33.845Z,10.90
2023-02-07T15:08:03.222Z,8.68
2023-02-07T15:10:32.704Z,9.05
2023-02-07T15:12:59.663Z,10.93
2023-02-07T15:15:28.387Z,8.80
2023-02-07T15:17:59.520Z,9.23
2023-02-07T15:20:32.717Z,8.60
2023-02-07T15:23:01.868Z,8.85
2023-02-07T15:25:30.620Z,8.80
2023-02-07T15:28:26.776Z,11.65
2023-02-07T15:31:04.773Z,9.75
2023-02-07T15:33:36.702Z,9.88
2023-02-07T15:36:25.712Z,10.00
2023-02-07T15:38:52.361Z,10.00
2023-02-07T15:41:18.736Z,10.52
2023-02-07T15:44:02.071Z,12.90
2023-02-07T15:46:54.538Z,11.73
2023-02-07T15:49:40.540Z,14.23
2023-02-07T15:52:24.793Z,20.70
2023-02-07T15:54:53.491Z,15.20
2023-02-07T15:57:30.179Z,15.27
2023-02-07T16:00:02.418Z,18.35
2023-02-07T16:02:47.163Z,16.40
2023-02-07T16:05:38.703Z,14.57
2023-02-07T16:08:08.848Z,12.70
2023-02-07T16:10:35.262Z,15.13
2023-02-07T16:13:03.472Z,15.80
2023-02-07T16:15:33.443Z,22.20
2023-02-07T16:18:01.510Z,20.15
2023-02-07T16:20:29.701Z,17.80
2023-02-07T16:22:59.125Z,13.32
2023-02-07T16:25:29.309Z,11.98
2023-02-07T16:27:55.848Z,12.30
2023-02-07T16:30:31.320Z,13.98
2023-02-07T16:32:57.602Z,17.95
2023-02-07T16:35:26.305Z,19.55
2023-02-07T16:37:53.804Z,18.08
2023-02-07T16:40:22.327Z,15.73
2023-02-07T16:42:49.848Z,14.07
2023-02-07T16:45:21.671Z,13.20
2023-02-07T16:47:48.142Z,12.18
2023-02-07T16:50:20.238Z,13.05
2023-02-07T16:52:49.256Z,12.15
2023-02-07T16:55:17.186Z,11.32
2023-02-07T16:57:45.176Z,11.20
2023-02-07T17:00:21.932Z,10.30
2023-02-07T17:02:50.328Z,10.93
2023-02-07T17:05:18.137Z,11.05
2023-02-07T17:07:44.616Z,12.13
2023-02-07T17:10:21.119Z,10.73
2023-02-07T17:12:51.992Z,11.50
2023-02-07T17:15:18.775Z,10.27
2023-02-07T17:17:45.316Z,10.82
2023-02-07T17:20:24.462Z,9.98
2023-02-07T17:22:51.545Z,11.73
2023-02-07T17:25:19.923Z,15.38
2023-02-07T17:27:46.287Z,18.23
2023-02-07T17:30:24.897Z,14.73
2023-02-07T17:32:51.779Z,11.35
2023-02-07T17:35:19.155Z,10.43
2023-02-07T17:37:45.535Z,12.00
2023-02-07T17:40:26.724Z,11.68
2023-02-07T17:42:53.652Z,11.02
2023-02-07T17:45:20.250Z,12.20
2023-02-07T17:47:46.936Z,9.88
2023-02-07T17:50:22.721Z,9.48
2023-02-07T17:52:49.162Z,9.95
2023-02-07T17:55:16.378Z,9.32
2023-02-07T17:57:43.553Z,9.93
2023-02-07T18:00:17.693Z,9.38
2023-02-07T18:02:47.159Z,8.57
2023-02-07T18:05:14.231Z,9.50
2023-02-07T18:07:40.626Z,11.25
2023-02-07T18:10:09.603Z,12.18
2023-02-07T18:12:37.171Z,13.82
2023-02-07T18:15:05.070Z,13.10
2023-02-07T18:17:31.528Z,11.30
2023-02-07T18:19:57.893Z,16.15
2023-02-07T18:22:24.220Z,14.13
2023-02-07T18:24:50.541Z,15.73
2023-02-07T18:27:18.369Z,16.40
2023-02-07T18:29:45.739Z,15.40
2023-02-07T18:32:12.422Z,33.00
2023-02-07T18:34:39.839Z,17.88
2023-02-07T18:37:06.521Z,14.82
2023-02-07T18:39:33.052Z,20.35
2023-02-07T18:41:59.520Z,14.80
2023-02-07T18:44:25.805Z,13.00
2023-02-07T18:46:52.158Z,20.77
2023-02-07T18:49:18.546Z,19.52
2023-02-07T18:51:44.872Z,19.63
2023-02-07T18:54:11.212Z,19.70
2023-02-07T18:56:37.715Z,16.25
2023-02-07T18:59:04.943Z,14.77
2023-02-07T19:01:31.599Z,16.08
2023-02-07T19:04:01.288Z,15.02
2023-02-07T19:06:31.526Z,14.45
2023-02-07T19:08:58.713Z,17.07
2023-02-07T19:11:26.397Z,16.40
2023-02-07T19:13:52.806Z,20.08
2023-02-07T19:16:22.652Z,15.48
2023-02-07T19:18:49.732Z,17.83
2023-02-07T19:21:21.565Z,26.20
2023-02-07T19:23:47.964Z,23.25
2023-02-07T19:26:14.394Z,25.77
2023-02-07T19:28:40.924Z,24.33
2023-02-07T19:31:10.739Z,23.02
2023-02-07T19:33:37.116Z,24.98
2023-02-07T19:36:08.564Z,28.63
2023-02-07T19:38:35.492Z,29.95
2023-02-07T19:41:02.321Z,27.42
2023-02-07T19:43:28.675Z,26.35
2023-02-07T19:45:55.357Z,20.75
2023-02-07T19:48:21.839Z,23.45
2023-02-07T19:50:48.439Z,31.42
2023-02-07T19:53:16.044Z,33.92
2023-02-07T19:55:42.445Z,31.60
2023-02-07T19:58:08.786Z,25.50
2023-02-07T20:00:35.083Z,21.88
2023-02-07T20:03:01.412Z,17.10
2023-02-07T20:05:27.848Z,16.40
2023-02-07T20:07:54.339Z,13.65
2023-02-07T20:10:20.829Z,14.23
2023-02-07T20:12:48.225Z,13.73
2023-02-07T20:15:14.794Z,12.30
2023-02-07T20:17:41.455Z,28.75
2023-02-07T20:20:08.147Z,17.83
2023-02-07T20:22:34.873Z,16.15
2023-02-07T20:25:01.661Z,12.70
2023-02-07T20:27:27.981Z,11.57
2023-02-07T20:29:54.321Z,10.90
2023-02-07T20:32:20.741Z,10.95
2023-02-07T20:34:47.219Z,16.13
2023-02-07T20:37:13.540Z,23.77
2023-02-07T20:39:39.857Z,47.20
2023-02-07T20:42:06.193Z,44.55
2023-02-07T20:44:32.532Z,43.25
2023-02-07T20:47:00.319Z,26.08
2023-02-07T20:49:29.473Z,18.90
2023-02-07T20:51:57.606Z,19.17
2023-02-07T20:54:26.804Z,18.95
2023-02-07T20:56:54.613Z,21.60
2023-02-07T20:59:32.725Z,30.75
2023-02-07T21:01:59.538Z,38.25
2023-02-07T21:04:27.038Z,29.75
2023-02-07T21:06:54.015Z,34.40
2023-02-07T21:09:20.426Z,65.15
2023-02-07T21:11:49.643Z,30.08
2023-02-07T21:14:25.640Z,26.77
2023-02-07T21:16:57.715Z,20.45
2023-02-07T21:19:25.436Z,32.08
2023-02-07T21:21:52.368Z,30.17
2023-02-07T21:24:19.157Z,27.13
2023-02-07T21:26:48.703Z,18.38
2023-02-07T21:29:15.182Z,22.05
2023-02-07T21:31:41.602Z,23.15
2023-02-07T21:34:09.557Z,22.58
2023-02-07T21:36:37.957Z,18.17
2023-02-07T21:39:10.392Z,20.70
2023-02-07T21:41:39.378Z,14.55
2023-02-07T21:44:06.153Z,17.67
2023-02-07T21:46:34.838Z,19.85
2023-02-07T21:49:04.270Z,23.73
2023-02-07T21:51:32.552Z,35.20
2023-02-07T21:53:59.906Z,34.65
2023-02-07T21:56:29.376Z,32.33
2023-02-07T21:58:58.226Z,28.33
2023-02-07T22:01:25.447Z,20.70
2023-02-07T22:03:54.372Z,20.88
2023-02-07T22:06:22.329Z,22.85
2023-02-07T22:08:51.299Z,24.40
2023-02-07T22:11:19.335Z,62.90
2023-02-07T22:13:47.219Z,51.63
2023-02-07T22:16:15.647Z,38.17
2023-02-07T22:18:42.690Z,30.70
2023-02-07T22:21:15.743Z,37.78
2023-02-07T22:23:42.604Z,35.50
2023-02-07T22:26:09.419Z,39.35
2023-02-07T22:28:37.980Z,40.88
2023-02-07T22:31:23.351Z,30.33
2023-02-07T22:33:51.183Z,35.67
2023-02-07T22:36:23.607Z,28.33
2023-02-07T22:38:50.740Z,26.98
2023-02-07T22:41:17.746Z,22.33
2023-02-07T22:43:44.673Z,20.75
2023-02-07T22:46:16.207Z,18.02
2023-02-07T22:48:43.540Z,14.40
2023-02-07T22:51:21.590Z,16.85
2023-02-07T22:53:49.344Z,19.52
2023-02-07T22:56:15.871Z,17.85
2023-02-07T22:58:42.463Z,17.65
2023-02-07T23:01:19.403Z,14.90
2023-02-07T23:03:45.814Z,15.00
2023-02-07T23:06:12.172Z,17.50
2023-02-07T23:08:38.480Z,28.75
2023-02-07T23:11:09.806Z,23.58
2023-02-07T23:13:36.427Z,20.92
2023-02-07T23:16:03.629Z,19.63
2023-02-07T23:18:30.050Z,20.77
2023-02-07T23:20:56.686Z,19.88
2023-02-07T23:23:23.552Z,17.75
2023-02-07T23:25:49.875Z,18.65
2023-02-07T23:28:16.284Z,18.10
2023-02-07T23:30:43.105Z,21.45
2023-02-07T23:33:10.165Z,23.58
2023-02-07T23:35:36.833Z,20.80
2023-02-07T23:38:03.269Z,20.60
2023-02-07T23:40:29.854Z,18.35
2023-02-07T23:42:56.197Z,19.27
2023-02-07T23:45:22.557Z,18.65
2023-02-07T23:47:48.862Z,20.15
2023-02-07T23:50:15.334Z,21.88
2023-02-07T23:52:41.651Z,20.58
2023-02-07T23:55:08.042Z,18.70
2023-02-07T23:57:34.405Z,18.23
